Time;durP1;ratioP1;P1;durP2;ratioP2;P2;SDS_P1;SDS_P2;PMS_P1;PMS_P2;Temp;Humidity;BMP_temperature;BMP_pressure;BME280_temperature;BME280_humidity;BME280_pressure;Samples;Min_cycle;Max_cycle;Signal;HPM_P1;HPM_P2
2021/12/22 00:00:49;;;;;;;38.58;34.33;;;-0.60;98.30;;;;;;4134487;28;20878;-83
2021/12/22 00:02:52;;;;;;;40.65;32.60;;;-0.70;98.30;;;;;;4134021;28;20216;-83
2021/12/22 00:04:56;;;;;;;37.90;32.50;;;-0.80;98.30;;;;;;4135088;28;20315;-83
2021/12/22 00:06:59;;;;;;;36.58;32.10;;;-0.70;98.30;;;;;;4133888;28;20279;-83
2021/12/22 00:09:04;;;;;;;36.53;32.63;;;-0.70;98.30;;;;;;4132450;28;20218;-84
2021/12/22 00:11:09;;;;;;;39.70;32.47;;;-0.70;98.30;;;;;;4133951;28;20299;-81
2021/12/22 00:13:13;;;;;;;39.10;33.65;;;-0.70;98.30;;;;;;4133864;28;20591;-83
2021/12/22 00:15:18;;;;;;;37.78;33.17;;;-0.70;98.30;;;;;;4135014;28;20318;-81
2021/12/22 00:17:21;;;;;;;37.17;33.03;;;-0.70;98.30;;;;;;4127481;28;20656;-83
2021/12/22 00:19:26;;;;;;;36.63;31.67;;;-0.70;98.30;;;;;;4124955;28;20291;-81
2021/12/22 00:21:29;;;;;;;36.22;32.33;;;-0.70;98.30;;;;;;4133604;28;20264;-83
2021/12/22 00:23:32;;;;;;;35.95;30.52;;;-0.80;98.30;;;;;;4134187;28;20223;-83
2021/12/22 00:25:35;;;;;;;39.03;31.42;;;-0.70;98.30;;;;;;4133781;28;20236;-83
2021/12/22 00:27:39;;;;;;;36.38;31.65;;;-0.70;98.30;;;;;;4125688;28;20320;-83
2021/12/22 00:29:45;;;;;;;36.42;30.77;;;-0.80;98.30;;;;;;4127628;28;20212;-83
2021/12/22 00:32:08;;;;;;;37.80;30.73;;;-0.80;98.30;;;;;;4134597;28;20699;-82
2021/12/22 00:34:16;;;;;;;35.30;28.65;;;-0.80;98.30;;;;;;4128964;28;20275;-82
2021/12/22 00:36:22;;;;;;;41.47;29.58;;;-0.80;98.30;;;;;;4134688;28;20239;-83
2021/12/22 00:38:25;;;;;;;35.83;29.50;;;-0.80;98.30;;;;;;4133874;28;20595;-82
2021/12/22 00:40:28;;;;;;;32.92;29.30;;;-0.80;98.30;;;;;;4134562;28;20232;-82
2021/12/22 00:42:31;;;;;;;39.33;29.90;;;-0.80;98.30;;;;;;4133986;28;20205;-82
2021/12/22 00:44:34;;;;;;;36.20;29.13;;;-0.90;98.30;;;;;;4134715;28;20298;-82
2021/12/22 00:46:37;;;;;;;32.47;28.52;;;-0.80;98.30;;;;;;4133935;28;20220;-81
2021/12/22 00:48:41;;;;;;;38.10;28.02;;;-0.80;98.30;;;;;;4134798;28;20216;-83
2021/12/22 00:50:45;;;;;;;36.53;30.85;;;-0.80;98.30;;;;;;4133955;28;20213;-82
2021/12/22 00:52:48;;;;;;;32.45;28.17;;;-0.90;98.30;;;;;;4140373;28;20217;-82
2021/12/22 00:54:51;;;;;;;38.38;29.70;;;-0.90;98.30;;;;;;4141242;28;20296;-81
2021/12/22 00:56:56;;;;;;;32.83;28.58;;;-0.90;98.30;;;;;;4141903;28;20216;-82
2021/12/22 00:58:59;;;;;;;33.38;29.27;;;-0.90;98.30;;;;;;4137386;28;20273;-81
2021/12/22 01:01:02;;;;;;;35.22;29.58;;;-0.80;98.30;;;;;;4135544;28;20299;-80
2021/12/22 01:03:05;;;;;;;34.80;29.35;;;-0.90;98.30;;;;;;4134716;28;20244;-83
2021/12/22 01:05:12;;;;;;;36.80;27.33;;;-0.90;98.30;;;;;;4131417;28;20254;-82
2021/12/22 01:07:15;;;;;;;36.53;27.48;;;-1.00;98.30;;;;;;4128237;28;20288;-83
2021/12/22 01:09:19;;;;;;;35.53;28.15;;;-1.00;98.30;;;;;;4134782;28;20222;-83
2021/12/22 01:11:22;;;;;;;35.00;29.10;;;-1.00;98.30;;;;;;4134477;28;20203;-82
2021/12/22 01:13:25;;;;;;;32.92;27.08;;;-0.90;98.30;;;;;;4138423;28;20759;-81
2021/12/22 01:15:29;;;;;;;31.65;27.23;;;-1.00;98.30;;;;;;4138394;28;20743;-83
2021/12/22 01:17:38;;;;;;;30.15;26.48;;;-1.10;98.30;;;;;;4133000;28;20618;-83
2021/12/22 01:19:47;;;;;;;33.40;27.90;;;-1.10;98.30;;;;;;4135189;28;20227;-83
2021/12/22 01:21:58;;;;;;;33.47;26.13;;;-1.10;98.30;;;;;;4123293;28;20216;-82
2021/12/22 01:24:10;;;;;;;29.58;25.88;;;-1.10;98.30;;;;;;4130697;28;20671;-83
2021/12/22 01:26:13;;;;;;;29.92;26.63;;;-1.20;98.30;;;;;;4127569;28;20200;-83
2021/12/22 01:28:18;;;;;;;31.38;27.30;;;-1.20;98.30;;;;;;4130841;28;20209;-81
2021/12/22 01:30:23;;;;;;;32.58;26.80;;;-1.20;98.30;;;;;;4126165;28;20609;-83
2021/12/22 01:32:27;;;;;;;31.10;25.88;;;-1.30;98.30;;;;;;4124859;28;20205;-82
2021/12/22 01:34:30;;;;;;;33.85;26.15;;;-1.30;98.30;;;;;;4131625;28;20238;-83
2021/12/22 01:36:33;;;;;;;33.63;26.15;;;-1.30;98.30;;;;;;4130800;28;20212;-81
2021/12/22 01:38:37;;;;;;;43.75;27.05;;;-1.30;98.30;;;;;;4126551;28;20229;-83
2021/12/22 01:40:42;;;;;;;33.17;26.58;;;-1.40;98.30;;;;;;4131136;28;20723;-82
2021/12/22 01:42:47;;;;;;;29.27;25.30;;;-1.40;98.30;;;;;;4129437;28;20212;-81
2021/12/22 01:45:13;;;;;;;32.72;25.70;;;-1.30;98.30;;;;;;4131125;28;20319;-83
2021/12/22 01:49:50;;;;;;;32.80;26.20;;;-1.50;98.30;;;;;;4133971;28;20207;-81
2021/12/22 01:52:01;;;;;;;29.13;24.50;;;-1.50;98.30;;;;;;4143301;28;20208;-82
2021/12/22 01:54:09;;;;;;;33.72;26.15;;;-1.50;98.30;;;;;;4144294;28;20227;-82
2021/12/22 01:56:21;;;;;;;30.63;25.40;;;-1.50;98.30;;;;;;4133365;28;20247;-82
2021/12/22 01:58:34;;;;;;;32.00;24.83;;;-1.50;98.30;;;;;;4138305;28;20247;-82
2021/12/22 02:00:37;;;;;;;30.77;24.80;;;-1.50;98.30;;;;;;4136801;28;20664;-80
2021/12/22 02:02:41;;;;;;;34.60;25.00;;;-1.50;98.30;;;;;;4144482;28;20213;-81
2021/12/22 02:04:44;;;;;;;28.42;24.85;;;-1.50;98.30;;;;;;4144476;28;20228;-83
2021/12/22 02:06:49;;;;;;;31.30;24.15;;;-1.50;98.30;;;;;;4136487;28;20243;-82
2021/12/22 02:08:55;;;;;;;33.90;25.90;;;-1.50;98.30;;;;;;4129680;28;20205;-81
2021/12/22 02:11:00;;;;;;;32.17;24.35;;;-1.50;98.30;;;;;;4132673;28;20266;-84
2021/12/22 02:13:04;;;;;;;27.45;24.55;;;-1.60;98.30;;;;;;4129673;28;20209;-84
2021/12/22 02:15:09;;;;;;;30.00;24.58;;;-1.70;98.30;;;;;;4137083;28;20236;-84
2021/12/22 02:17:13;;;;;;;30.48;24.88;;;-1.80;98.30;;;;;;4132454;28;20572;-83
2021/12/22 02:19:16;;;;;;;30.70;23.90;;;-1.80;98.30;;;;;;4134340;28;20315;-83
2021/12/22 02:21:22;;;;;;;29.88;25.05;;;-1.80;98.30;;;;;;4129289;28;20326;-82
2021/12/22 02:23:25;;;;;;;29.92;24.25;;;-1.80;98.30;;;;;;4128138;28;20219;-82
2021/12/22 02:25:36;;;;;;;27.63;24.00;;;-1.90;98.30;;;;;;4135798;28;20240;-83
2021/12/22 02:27:45;;;;;;;30.15;22.73;;;-1.90;98.30;;;;;;4129478;28;20219;-82
2021/12/22 02:29:49;;;;;;;26.23;23.42;;;-1.90;98.30;;;;;;4134942;28;20200;-84
2021/12/22 02:32:03;;;;;;;29.70;24.50;;;-1.90;98.30;;;;;;4131648;28;20210;-83
2021/12/22 02:34:13;;;;;;;28.02;23.20;;;-2.00;98.30;;;;;;4131013;28;20228;-82
2021/12/22 02:36:24;;;;;;;26.15;23.38;;;-2.00;98.30;;;;;;4127104;28;20295;-83
2021/12/22 02:38:28;;;;;;;31.70;22.77;;;-2.00;98.30;;;;;;4133999;28;20299;-83
2021/12/22 02:40:31;;;;;;;29.33;22.70;;;-2.10;98.30;;;;;;4135284;28;20236;-84
2021/12/22 02:42:35;;;;;;;27.73;22.17;;;-2.10;98.30;;;;;;4135974;28;20204;-79
2021/12/22 02:44:38;;;;;;;30.05;23.77;;;-2.00;98.30;;;;;;4136182;28;20672;-81
2021/12/22 02:46:41;;;;;;;27.40;23.30;;;-2.00;98.30;;;;;;4133754;28;20668;-81
2021/12/22 02:48:45;;;;;;;27.02;22.67;;;-1.90;98.30;;;;;;4135343;28;20235;-82
2021/12/22 02:50:48;;;;;;;26.95;23.08;;;-2.00;98.30;;;;;;4135817;28;20259;-81
2021/12/22 02:53:02;;;;;;;28.42;22.65;;;-2.00;98.30;;;;;;4135809;28;20618;-82
2021/12/22 02:55:07;;;;;;;26.38;22.90;;;-2.10;98.30;;;;;;4135301;28;20283;-79
2021/12/22 02:57:22;;;;;;;30.25;21.73;;;-2.10;98.30;;;;;;4132913;28;20314;-82
2021/12/22 02:59:47;;;;;;;23.75;20.67;;;-2.10;98.30;;;;;;4126563;28;20255;-82
2021/12/22 03:02:10;;;;;;;25.10;21.33;;;-2.20;98.30;;;;;;4134530;28;20216;-80
2021/12/22 03:04:19;;;;;;;28.02;21.85;;;-2.30;98.30;;;;;;4129780;28;20237;-82
2021/12/22 03:06:29;;;;;;;24.35;19.85;;;-2.20;98.30;;;;;;4135350;28;20200;-82
2021/12/22 03:08:32;;;;;;;23.17;20.67;;;-2.20;98.30;;;;;;4129827;28;20207;-82
2021/12/22 03:10:36;;;;;;;29.77;21.27;;;-2.30;98.30;;;;;;4132663;28;20230;-81
2021/12/22 03:12:40;;;;;;;23.85;21.05;;;-2.40;98.30;;;;;;4134371;28;20270;-81
2021/12/22 03:14:43;;;;;;;26.90;21.17;;;-2.30;98.30;;;;;;4132039;28;20259;-81
2021/12/22 03:16:47;;;;;;;23.33;20.40;;;-2.30;98.30;;;;;;4135208;28;20211;-82
2021/12/22 03:18:50;;;;;;;22.30;18.83;;;-2.40;98.30;;;;;;4135139;28;20239;-81
2021/12/22 03:21:01;;;;;;;24.63;20.38;;;-2.30;98.30;;;;;;4134838;28;20575;-82
2021/12/22 03:23:04;;;;;;;21.75;18.98;;;-2.40;98.30;;;;;;4135352;28;20205;-82
2021/12/22 03:25:15;;;;;;;23.23;19.75;;;-2.40;98.30;;;;;;4135351;28;20236;-82
2021/12/22 03:27:20;;;;;;;21.10;18.80;;;-2.50;98.30;;;;;;4133325;28;20287;-81
2021/12/22 03:29:23;;;;;;;22.00;19.27;;;-2.40;98.30;;;;;;4130768;28;20235;-80
2021/12/22 03:31:26;;;;;;;25.58;20.20;;;-2.40;98.30;;;;;;4125577;28;20208;-82
2021/12/22 03:33:29;;;;;;;22.88;20.17;;;-2.50;98.30;;;;;;4134860;28;20215;-82
2021/12/22 03:35:34;;;;;;;24.95;19.15;;;-2.50;98.30;;;;;;4134294;28;20647;-82
2021/12/22 03:37:37;;;;;;;21.58;18.55;;;-2.40;98.30;;;;;;4134376;28;20247;-81
2021/12/22 03:39:41;;;;;;;21.40;18.08;;;-2.40;98.30;;;;;;4126506;28;20341;-79
2021/12/22 03:41:46;;;;;;;22.88;18.63;;;-2.40;98.30;;;;;;4132829;28;20219;-80
2021/12/22 03:43:51;;;;;;;24.08;19.25;;;-2.50;98.30;;;;;;4134616;28;20296;-80
2021/12/22 03:45:55;;;;;;;20.33;18.23;;;-2.50;98.30;;;;;;4139104;28;20267;-81
2021/12/22 03:47:58;;;;;;;21.17;18.25;;;-2.50;98.30;;;;;;4131330;28;20292;-81
2021/12/22 03:50:03;;;;;;;20.80;17.42;;;-2.50;98.30;;;;;;4135262;28;20275;-82
2021/12/22 03:52:07;;;;;;;22.40;17.55;;;-2.60;98.30;;;;;;4134832;28;20208;-80
2021/12/22 03:54:12;;;;;;;19.92;16.52;;;-2.60;98.30;;;;;;4132614;28;20236;-81
2021/12/22 03:56:15;;;;;;;21.92;16.58;;;-2.60;98.30;;;;;;4130609;28;20213;-82
2021/12/22 03:58:18;;;;;;;21.63;17.77;;;-2.60;98.30;;;;;;4134434;28;20575;-82
2021/12/22 04:00:22;;;;;;;19.45;17.30;;;-2.60;98.30;;;;;;4134981;28;20268;-80
2021/12/22 04:02:26;;;;;;;20.17;18.08;;;-2.60;98.30;;;;;;4134371;28;20295;-79
2021/12/22 04:04:29;;;;;;;24.70;18.65;;;-2.60;98.30;;;;;;4134331;28;20220;-82
2021/12/22 04:06:32;;;;;;;22.20;17.65;;;-2.70;98.30;;;;;;4134112;28;20568;-81
2021/12/22 04:08:35;;;;;;;20.20;17.58;;;-2.70;98.30;;;;;;4134513;28;20681;-80
2021/12/22 04:10:38;;;;;;;22.20;18.42;;;-2.90;98.30;;;;;;4134395;28;20213;-82
2021/12/22 04:12:42;;;;;;;25.25;18.23;;;-2.90;98.30;;;;;;4134383;28;20213;-81
2021/12/22 04:14:45;;;;;;;21.13;18.30;;;-2.80;98.30;;;;;;4135039;28;20228;-81
2021/12/22 04:16:49;;;;;;;21.33;17.30;;;-2.90;98.30;;;;;;4134567;28;20227;-81
2021/12/22 04:18:52;;;;;;;22.02;17.75;;;-2.90;98.30;;;;;;4134735;28;20204;-81
2021/12/22 04:20:55;;;;;;;23.65;17.95;;;-2.90;98.30;;;;;;4133995;28;20220;-82
2021/12/22 04:22:59;;;;;;;23.25;18.40;;;-2.90;98.30;;;;;;4133135;28;20687;-81
2021/12/22 04:25:02;;;;;;;21.30;17.17;;;-2.90;98.30;;;;;;4134071;28;20599;-81
2021/12/22 04:27:05;;;;;;;22.17;18.85;;;-2.90;98.30;;;;;;4130663;28;20215;-81
2021/12/22 04:29:10;;;;;;;23.65;18.45;;;-3.00;98.30;;;;;;4133870;28;20204;-82
2021/12/22 04:31:13;;;;;;;21.42;18.13;;;-2.90;98.30;;;;;;4133823;28;20204;-82
2021/12/22 04:33:21;;;;;;;22.08;17.20;;;-3.00;98.30;;;;;;4133869;28;20292;-81
2021/12/22 04:35:24;;;;;;;22.52;17.63;;;-3.00;98.30;;;;;;4132033;28;20235;-81
2021/12/22 04:37:27;;;;;;;23.45;17.67;;;-3.10;98.30;;;;;;4132856;28;20674;-81
2021/12/22 04:39:32;;;;;;;19.58;16.00;;;-3.10;98.30;;;;;;4133971;28;20206;-81
2021/12/22 04:41:35;;;;;;;21.90;18.70;;;-3.10;98.30;;;;;;4127965;28;20236;-82
2021/12/22 04:43:38;;;;;;;21.67;17.92;;;-3.20;98.30;;;;;;4132358;28;20263;-79
2021/12/22 04:45:41;;;;;;;22.17;18.55;;;-3.10;98.30;;;;;;4133522;28;20238;-79
2021/12/22 04:47:46;;;;;;;24.30;18.55;;;-3.10;98.30;;;;;;4133395;28;20220;-82
2021/12/22 04:49:50;;;;;;;21.50;17.35;;;-3.20;98.30;;;;;;4132541;28;20209;-82
2021/12/22 04:51:55;;;;;;;21.55;18.55;;;-3.10;98.30;;;;;;4129960;28;20208;-82
2021/12/22 04:54:04;;;;;;;25.92;18.20;;;-3.20;98.30;;;;;;4132889;28;20641;-81
2021/12/22 04:56:08;;;;;;;27.05;19.60;;;-3.10;98.30;;;;;;4131285;28;20585;-81
2021/12/22 04:58:11;;;;;;;24.98;20.65;;;-3.10;98.30;;;;;;4132719;28;20723;-81
2021/12/22 05:00:16;;;;;;;24.55;19.75;;;-3.10;98.30;;;;;;4132973;28;20215;-81
2021/12/22 05:02:19;;;;;;;22.42;18.25;;;-3.20;98.30;;;;;;4131454;28;20228;-81
2021/12/22 05:04:22;;;;;;;20.75;18.20;;;-3.00;98.30;;;;;;4132814;28;20239;-82
2021/12/22 05:06:26;;;;;;;22.05;17.40;;;-3.00;98.30;;;;;;4133010;28;20213;-82
2021/12/22 05:08:29;;;;;;;22.60;17.92;;;-3.00;98.30;;;;;;4132821;28;20936;-82
2021/12/22 05:10:32;;;;;;;24.42;19.38;;;-3.10;98.30;;;;;;4130586;28;21135;-82
2021/12/22 05:12:36;;;;;;;22.25;18.23;;;-3.10;98.30;;;;;;4128693;28;20205;-81
2021/12/22 05:14:42;;;;;;;20.45;16.70;;;-3.10;98.30;;;;;;4129590;28;20258;-82
2021/12/22 05:16:48;;;;;;;21.40;17.10;;;-3.00;98.30;;;;;;4131235;28;20870;-82
2021/12/22 05:18:57;;;;;;;20.58;17.48;;;-3.00;98.30;;;;;;4133323;28;20631;-80
2021/12/22 05:21:00;;;;;;;24.58;16.95;;;-3.20;98.30;;;;;;4132416;28;20212;-81
2021/12/22 05:23:04;;;;;;;22.00;16.50;;;-3.20;98.30;;;;;;4131354;28;20617;-82
2021/12/22 05:25:11;;;;;;;21.80;16.75;;;-3.30;98.30;;;;;;4133239;28;20723;-81
2021/12/22 05:27:14;;;;;;;22.33;17.95;;;-3.30;98.30;;;;;;4133555;28;20208;-82
2021/12/22 05:29:17;;;;;;;20.42;17.17;;;-3.30;98.30;;;;;;4133223;28;20215;-81
2021/12/22 05:31:20;;;;;;;26.25;18.13;;;-3.40;98.30;;;;;;4132241;28;20641;-81
2021/12/22 05:33:23;;;;;;;21.55;17.58;;;-3.40;98.30;;;;;;4132222;28;20209;-81
2021/12/22 05:35:26;;;;;;;21.17;16.63;;;-3.40;98.30;;;;;;4130698;28;20243;-81
2021/12/22 05:37:29;;;;;;;23.23;18.67;;;-3.40;98.30;;;;;;4131461;28;20510;-81
2021/12/22 05:39:33;;;;;;;22.13;16.30;;;-3.30;98.30;;;;;;4133104;28;20219;-81
2021/12/22 05:41:36;;;;;;;23.38;17.30;;;-3.30;98.30;;;;;;4131068;28;20719;-81
2021/12/22 05:43:39;;;;;;;22.63;16.65;;;-3.40;98.30;;;;;;4133142;28;20287;-80
2021/12/22 05:45:42;;;;;;;21.02;16.55;;;-3.40;98.30;;;;;;4129893;28;20250;-81
2021/12/22 05:47:46;;;;;;;20.92;17.08;;;-3.40;98.30;;;;;;4130764;28;20306;-81
2021/12/22 05:49:49;;;;;;;21.30;17.15;;;-3.40;98.30;;;;;;4134020;28;20252;-82
2021/12/22 05:51:52;;;;;;;22.08;17.00;;;-3.50;98.30;;;;;;4133438;28;20225;-79
2021/12/22 05:53:55;;;;;;;23.75;17.55;;;-3.50;98.30;;;;;;4131227;28;20212;-81
2021/12/22 05:56:00;;;;;;;28.08;18.50;;;-3.50;98.30;;;;;;4133649;28;20212;-82
2021/12/22 05:58:03;;;;;;;26.92;17.75;;;-3.40;98.30;;;;;;4132738;28;20248;-81
2021/12/22 06:00:08;;;;;;;21.98;17.55;;;-3.30;98.30;;;;;;4133704;28;20201;-82
2021/12/22 06:02:11;;;;;;;22.95;17.48;;;-3.40;98.30;;;;;;4130275;28;20227;-81
2021/12/22 06:04:14;;;;;;;20.88;15.85;;;-3.40;98.30;;;;;;4131819;28;20224;-81
2021/12/22 06:06:17;;;;;;;20.85;17.50;;;-3.40;98.30;;;;;;4133088;28;20231;-81
2021/12/22 06:08:20;;;;;;;22.85;18.00;;;-3.50;98.30;;;;;;4126836;28;20202;-79
2021/12/22 06:10:23;;;;;;;22.33;16.50;;;-3.50;98.30;;;;;;4125959;28;20300;-81
2021/12/22 06:12:27;;;;;;;19.85;16.50;;;-3.40;98.30;;;;;;4127811;28;20205;-81
2021/12/22 06:14:30;;;;;;;19.95;16.77;;;-3.40;98.30;;;;;;4132111;28;20717;-80
2021/12/22 06:16:33;;;;;;;23.60;17.30;;;-3.40;98.30;;;;;;4132589;28;20220;-81
2021/12/22 06:18:42;;;;;;;22.65;17.63;;;-3.40;98.30;;;;;;4131916;28;20223;-81
2021/12/22 06:20:45;;;;;;;24.00;16.63;;;-3.40;98.30;;;;;;4132655;28;20207;-80
2021/12/22 06:22:47;;;;;;;21.67;17.45;;;-3.50;98.30;;;;;;4131761;28;20231;-81
2021/12/22 06:24:50;;;;;;;24.77;17.80;;;-3.50;98.30;;;;;;4132806;28;20321;-81
2021/12/22 06:26:53;;;;;;;23.95;18.30;;;-3.50;98.30;;;;;;4127541;28;20584;-81
2021/12/22 06:28:58;;;;;;;25.27;18.45;;;-3.50;98.30;;;;;;4135748;28;20209;-81
2021/12/22 06:31:01;;;;;;;25.33;18.58;;;-3.70;98.30;;;;;;4136273;28;20209;-81
2021/12/22 06:33:04;;;;;;;24.85;17.75;;;-3.60;98.30;;;;;;4142415;28;20223;-80
2021/12/22 06:35:08;;;;;;;25.30;17.52;;;-3.60;98.30;;;;;;4146964;28;20603;-79
2021/12/22 06:37:13;;;;;;;24.20;16.95;;;-3.70;98.30;;;;;;4143962;28;20268;-79
2021/12/22 06:39:18;;;;;;;23.45;16.40;;;-3.70;98.30;;;;;;4145155;28;20272;-80
2021/12/22 06:41:21;;;;;;;21.05;17.38;;;-3.70;98.30;;;;;;4143320;28;20208;-81
2021/12/22 06:43:24;;;;;;;24.17;17.55;;;-3.80;98.30;;;;;;4143883;28;20204;-80
2021/12/22 06:45:29;;;;;;;26.42;19.50;;;-3.80;98.30;;;;;;4137952;28;20251;-81
2021/12/22 06:47:32;;;;;;;24.55;18.20;;;-3.70;98.30;;;;;;4135808;28;20275;-82
2021/12/22 06:49:35;;;;;;;24.85;16.80;;;-3.60;98.30;;;;;;4135239;28;20216;-81
2021/12/22 06:51:38;;;;;;;21.75;17.02;;;-3.60;98.30;;;;;;4138983;28;20219;-81
2021/12/22 06:53:41;;;;;;;25.10;17.30;;;-3.60;98.30;;;;;;4136673;28;20208;-81
2021/12/22 06:55:44;;;;;;;24.85;18.58;;;-3.80;98.30;;;;;;4135037;28;20313;-81
2021/12/22 06:57:48;;;;;;;22.55;16.98;;;-3.80;98.30;;;;;;4132489;28;20215;-81
2021/12/22 06:59:51;;;;;;;24.92;17.27;;;-3.80;98.30;;;;;;4136208;28;20261;-82
2021/12/22 07:01:55;;;;;;;24.55;16.98;;;-3.90;98.30;;;;;;4136080;28;20228;-82
2021/12/22 07:03:58;;;;;;;24.55;17.30;;;-3.90;98.30;;;;;;4136917;28;20213;-79
2021/12/22 07:06:01;;;;;;;23.05;17.25;;;-3.90;98.30;;;;;;4136038;28;20268;-82
2021/12/22 07:08:05;;;;;;;22.02;16.92;;;-3.90;98.30;;;;;;4137140;28;20218;-82
2021/12/22 07:10:11;;;;;;;24.60;18.15;;;-3.90;98.30;;;;;;4136637;28;20214;-81
2021/12/22 07:12:14;;;;;;;22.42;16.88;;;-3.90;98.30;;;;;;4126209;28;20216;-83
2021/12/22 07:14:17;;;;;;;24.30;19.15;;;-3.90;98.30;;;;;;4130776;28;20328;-81
2021/12/22 07:16:20;;;;;;;25.30;18.67;;;-3.90;98.30;;;;;;4130811;28;20204;-82
2021/12/22 07:18:31;;;;;;;28.63;19.70;;;-3.90;98.30;;;;;;4156534;23;20239;-84
2021/12/22 07:20:34;;;;;;;27.63;19.60;;;-4.00;98.30;;;;;;4144197;28;20610;-79
2021/12/22 07:22:37;;;;;;;27.92;19.67;;;-4.10;98.30;;;;;;4143030;28;20971;-79
2021/12/22 07:24:40;;;;;;;27.27;18.73;;;-4.00;98.30;;;;;;4146057;28;20211;-79
2021/12/22 07:26:43;;;;;;;28.13;19.80;;;-4.10;98.30;;;;;;4142223;28;20234;-79
2021/12/22 07:28:48;;;;;;;27.40;19.35;;;-4.10;98.30;;;;;;4141435;28;20712;-77
2021/12/22 07:30:51;;;;;;;25.10;19.00;;;-4.20;98.30;;;;;;4147484;28;20613;-78
2021/12/22 07:32:54;;;;;;;30.55;21.00;;;-4.20;98.30;;;;;;4147540;28;20200;-79
2021/12/22 07:35:05;;;;;;;30.80;21.25;;;-4.20;98.30;;;;;;4147592;28;20219;-82
2021/12/22 07:37:15;;;;;;;28.95;19.70;;;-4.20;98.30;;;;;;4148211;28;20223;-79
2021/12/22 07:39:18;;;;;;;30.65;18.90;;;-4.20;98.30;;;;;;4147613;28;20357;-79
2021/12/22 07:41:20;;;;;;;32.47;20.85;;;-4.10;98.30;;;;;;4149355;28;20211;-77
2021/12/22 07:43:23;;;;;;;35.22;22.30;;;-4.10;98.30;;;;;;4148175;28;20381;-79
2021/12/22 07:45:26;;;;;;;39.35;23.52;;;-4.10;98.30;;;;;;4150591;28;20211;-80
2021/12/22 07:47:29;;;;;;;35.38;22.23;;;-4.10;98.30;;;;;;4150978;28;20246;-79
2021/12/22 07:49:32;;;;;;;39.67;22.95;;;-4.20;98.30;;;;;;4150266;28;20507;-79
2021/12/22 07:51:37;;;;;;;35.83;23.08;;;-4.20;98.30;;;;;;4154413;28;20211;-79
2021/12/22 07:53:40;;;;;;;37.08;23.67;;;-4.20;98.30;;;;;;4149846;28;20207;-78
2021/12/22 07:55:43;;;;;;;38.22;25.42;;;-4.10;98.30;;;;;;4156908;28;20214;-78
2021/12/22 07:57:46;;;;;;;50.20;26.67;;;-4.10;98.30;;;;;;4147110;28;20266;-78
2021/12/22 07:59:49;;;;;;;44.47;26.25;;;-4.20;98.30;;;;;;4146937;28;20215;-80
2021/12/22 08:01:52;;;;;;;39.25;23.33;;;-4.10;98.30;;;;;;4147004;28;20211;-79
2021/12/22 08:03:55;;;;;;;53.92;29.77;;;-4.10;98.30;;;;;;4146720;28;20663;-79
2021/12/22 08:05:58;;;;;;;47.38;27.25;;;-4.10;98.30;;;;;;4147530;28;20278;-80
2021/12/22 08:08:03;;;;;;;43.78;24.35;;;-4.00;98.30;;;;;;4147203;28;20239;-78
2021/12/22 08:10:07;;;;;;;43.17;26.52;;;-4.00;98.30;;;;;;4147297;28;20594;-79
2021/12/22 08:12:10;;;;;;;42.05;25.98;;;-4.00;98.30;;;;;;4145221;28;20223;-78
2021/12/22 08:14:13;;;;;;;41.78;25.88;;;-3.90;98.30;;;;;;4147023;28;20222;-79
2021/12/22 08:16:16;;;;;;;42.97;25.65;;;-3.90;98.30;;;;;;4147218;28;20262;-77
2021/12/22 08:18:20;;;;;;;49.08;26.90;;;-3.80;98.30;;;;;;4146517;28;20322;-81
2021/12/22 08:20:24;;;;;;;43.40;25.50;;;-3.80;98.30;;;;;;4147507;28;20207;-82
2021/12/22 08:22:27;;;;;;;44.60;28.40;;;-3.90;98.30;;;;;;4146443;28;20242;-79
2021/12/22 08:24:32;;;;;;;42.10;25.48;;;-3.90;98.30;;;;;;4146641;28;20210;-78
2021/12/22 08:26:35;;;;;;;44.80;27.67;;;-3.80;98.30;;;;;;4146906;28;20207;-77
2021/12/22 08:28:38;;;;;;;45.05;28.00;;;-3.80;98.30;;;;;;4142127;28;20700;-79
2021/12/22 08:30:42;;;;;;;43.75;26.90;;;-3.70;98.30;;;;;;4147092;28;20203;-80
2021/12/22 08:32:45;;;;;;;50.70;30.10;;;-3.70;98.30;;;;;;4146842;28;20262;-77
2021/12/22 08:34:53;;;;;;;44.40;28.35;;;-3.80;98.30;;;;;;4146558;28;20266;-78
2021/12/22 08:39:22;;;;;;;52.63;28.25;;;-3.70;98.30;;;;;;4146243;28;20223;-78
2021/12/22 08:41:28;;;;;;;43.28;26.58;;;-3.70;98.30;;;;;;4147059;28;20203;-78
2021/12/22 08:43:31;;;;;;;68.40;38.58;;;-3.70;98.30;;;;;;4146730;28;20285;-79
2021/12/22 08:45:34;;;;;;;68.50;38.85;;;-3.80;98.30;;;;;;4140897;28;20242;-78
2021/12/22 08:47:37;;;;;;;86.07;47.85;;;-3.80;98.30;;;;;;4145215;28;20227;-79
2021/12/22 08:49:40;;;;;;;115.82;58.22;;;-3.70;98.30;;;;;;4142100;28;20219;-78
2021/12/22 08:51:43;;;;;;;172.00;89.85;;;-3.70;98.30;;;;;;4146312;28;20216;-78
2021/12/22 08:53:46;;;;;;;376.73;181.77;;;-3.60;98.30;;;;;;4146188;28;20293;-79
2021/12/22 08:55:49;;;;;;;373.77;178.65;;;-3.70;98.30;;;;;;4150980;28;20219;-78
2021/12/22 08:57:53;;;;;;;146.27;72.75;;;-3.70;98.30;;;;;;4145996;28;20228;-78
2021/12/22 08:59:56;;;;;;;147.57;69.57;;;-3.70;98.30;;;;;;4144667;28;20207;-79
2021/12/22 09:01:59;;;;;;;100.15;51.55;;;-3.60;98.30;;;;;;4146099;28;20208;-79
2021/12/22 09:04:02;;;;;;;110.28;57.92;;;-3.50;98.30;;;;;;4141316;28;20465;-77
2021/12/22 09:06:05;;;;;;;200.10;100.55;;;-3.50;98.30;;;;;;4145958;28;20218;-79
2021/12/22 09:08:08;;;;;;;193.48;93.43;;;-3.40;98.30;;;;;;4140881;28;20235;-79
2021/12/22 09:10:11;;;;;;;179.82;90.15;;;-3.30;98.30;;;;;;4146306;28;20270;-78
2021/12/22 09:12:14;;;;;;;201.02;99.75;;;-3.40;98.30;;;;;;4146637;28;20257;-78
2021/12/22 09:14:21;;;;;;;103.10;54.38;;;-3.30;98.30;;;;;;4146716;28;20235;-77
2021/12/22 09:16:24;;;;;;;115.80;61.65;;;-3.20;98.30;;;;;;4142053;28;20206;-79
2021/12/22 09:18:26;;;;;;;119.00;66.78;;;-3.20;98.30;;;;;;4145870;28;20238;-78
2021/12/22 09:20:30;;;;;;;87.53;50.08;;;-3.20;98.30;;;;;;4146206;28;20211;-82
2021/12/22 09:22:33;;;;;;;81.28;45.95;;;-3.10;98.30;;;;;;4145910;28;20647;-79
2021/12/22 09:24:35;;;;;;;102.43;56.17;;;-3.00;98.30;;;;;;4149106;28;20216;-78
2021/12/22 09:26:39;;;;;;;116.20;62.97;;;-2.90;98.30;;;;;;4144473;28;20208;-78
2021/12/22 09:28:42;;;;;;;120.57;73.75;;;-2.80;98.30;;;;;;4140059;28;20239;-79
2021/12/22 09:30:47;;;;;;;157.32;88.78;;;-2.70;98.30;;;;;;4146000;28;20204;-78
2021/12/22 09:32:50;;;;;;;152.40;94.45;;;-2.50;98.30;;;;;;4144564;28;20285;-78
2021/12/22 09:34:53;;;;;;;144.00;90.35;;;-2.50;98.30;;;;;;4145871;28;20224;-79
2021/12/22 09:36:56;;;;;;;138.80;83.13;;;-2.40;98.30;;;;;;4146349;28;20293;-79
2021/12/22 09:38:59;;;;;;;114.95;70.80;;;-2.50;98.30;;;;;;4147818;28;20282;-78
2021/12/22 09:41:04;;;;;;;108.32;62.53;;;-2.40;98.30;;;;;;4143511;28;20208;-80
2021/12/22 09:43:07;;;;;;;102.88;62.70;;;-2.40;98.30;;;;;;4145821;28;20211;-79
2021/12/22 09:45:10;;;;;;;107.65;61.88;;;-2.30;98.30;;;;;;4145650;28;20270;-79
2021/12/22 09:47:23;;;;;;;114.65;65.18;;;-2.40;98.30;;;;;;4145847;28;20215;-78
2021/12/22 09:49:45;;;;;;;90.07;49.47;;;-2.40;98.30;;;;;;4143488;28;20571;-78
2021/12/22 09:54:12;;;;;;;80.22;42.63;;;-2.40;98.30;;;;;;4145497;28;20231;-79
2021/12/22 09:56:19;;;;;;;65.50;39.00;;;-2.40;98.30;;;;;;4145956;28;20218;-79
2021/12/22 09:58:23;;;;;;;60.65;36.38;;;-2.50;98.30;;;;;;4146488;28;20719;-78
2021/12/22 10:00:26;;;;;;;76.10;43.47;;;-2.40;98.30;;;;;;4146113;28;20680;-77
2021/12/22 10:02:30;;;;;;;69.85;40.40;;;-2.40;98.30;;;;;;4141820;28;20250;-79
2021/12/22 10:04:34;;;;;;;54.30;32.00;;;-2.30;98.30;;;;;;4145928;28;20200;-79
2021/12/22 10:06:40;;;;;;;60.17;33.53;;;-2.20;98.30;;;;;;4145690;28;20203;-78
2021/12/22 10:08:51;;;;;;;56.83;36.72;;;-2.20;98.30;;;;;;4149016;28;20223;-80
2021/12/22 10:11:03;;;;;;;62.20;36.60;;;-2.20;98.30;;;;;;4148841;28;20265;-78
2021/12/22 10:13:07;;;;;;;66.85;37.90;;;-2.20;98.30;;;;;;4151442;28;20717;-77
2021/12/22 10:15:12;;;;;;;54.22;30.73;;;-2.10;98.30;;;;;;4148824;28;20227;-78
2021/12/22 10:17:32;;;;;;;54.38;33.28;;;-1.90;98.30;;;;;;4148127;28;20711;-77
2021/12/22 10:19:35;;;;;;;47.72;29.17;;;-2.00;98.30;;;;;;4148094;28;20215;-78
2021/12/22 10:21:52;;;;;;;43.72;27.95;;;-1.90;98.30;;;;;;4148214;28;20211;-78
2021/12/22 10:23:56;;;;;;;46.78;26.75;;;-2.10;98.30;;;;;;4150182;28;20200;-78
2021/12/22 10:26:01;;;;;;;42.30;27.88;;;-2.20;98.30;;;;;;4148820;28;20203;-77
2021/12/22 10:28:07;;;;;;;45.00;27.65;;;-2.40;98.30;;;;;;4149096;28;20702;-77
2021/12/22 10:30:32;;;;;;;46.08;29.95;;;-2.40;98.30;;;;;;4148879;28;20298;-78
2021/12/22 10:32:37;;;;;;;45.60;29.63;;;-2.40;98.30;;;;;;4145778;28;20597;-79
2021/12/22 10:34:58;;;;;;;43.55;27.70;;;-2.40;98.30;;;;;;4148218;28;20572;-79
2021/12/22 10:37:01;;;;;;;50.22;29.30;;;-2.30;98.30;;;;;;4144482;28;20207;-81
2021/12/22 10:39:05;;;;;;;48.95;30.98;;;-2.20;98.30;;;;;;4147841;28;20207;-78